Valparaiso, FL

9:52 PM CST on February 08, 2016 (GMT -0600)
Eglin Air Force Base | | Change Station
CLOSE
Current Station
Airport
Location: Valparaiso,
Elevation: 85 ft
Nearby Weather Stations
Active Advisory: High Wind Advisory

Elev 85 ft 30.48 °N, 86.53 °W | Updated 57 minutes ago

Scattered Clouds
Scattered Clouds
49 °F
Feels Like 49 °F
N
15
Wind Variable Wind from NW
Gusts 26 mph

Today
High -- | Low -- °F
--% Chance of Precip.
Yesterday
High -- | Low -- °F
Precip. -- in
Pressure 30.00 in
Visibility 10.0 miles
Clouds Scattered Clouds 9500 ft
Dew Point 20 °F
Humidity 32%
Rainfall 0.00 in
Snow Depth Not available.
6:32 AM 5:28 PM
New Moon, 0% visible
METAR KVPS 090255Z 32013G23KT 10SM SCT095 10/M06 A2998 RMK AO2A SLP159 T00951064 52030 $
Pressure 30.00 in
Visibility 10.0 miles
Clouds Scattered Clouds 9500 ft
Dew Point 20 °F
Humidity 32%
Rainfall 0.00 in
Snow Depth Not available.
6:32 AM 5:28 PM
New Moon, 0% visible
METAR KVPS 090255Z 32013G23KT 10SM SCT095 10/M06 A2998 RMK AO2A SLP159 T00951064 52030 $

10-Day Weather Forecast

Almanac

Astronomy

Feb. 08, 2016 Rise Set
Actual Time
Civil Twilight
Nautical Twilight
Astronomical Twilight
Moon
Length of Visible Light
Length of Day
Tomorrow will be .
, % of the Moon is Illuminated

Today's Extremes

State Highs State Lows

Community

WunderPhotos

Upload Photos

1,891,528 photos uploaded!

WunderBlog® & News

Nearby

Air Quality

  Air Quality AQ Index Pollutant
Not available.

Snow Depth

Station Depth Elevation

Earthquake Activity

City Distance Mag. Time & Date
Minimum magnitude displayed is 2.5.

Coastal Water Temperatures

Place Temperature

Stations

Nearby Weather Stations

Station Location Temp. Windchill Dew Point Humidity Wind Precip. Elev Updated Type
                   

Watches & Warnings

High Wind Advisory
Issued: 9:51 PM CST Feb. 8, 2016 – National Weather Service

... Wind Advisory is cancelled...

The National Weather Service in Mobile has cancelled the Wind
Advisory along the immediate coast.

While breezy northwest winds will persist along area beaches and
near the immediate coast... widespread wind gusts in excess of 30 mph
are no longer expected.